createdAt,value
2022-09-22T00:00:35.012Z,2.9
2022-09-22T00:01:43.698Z,1.3
2022-09-22T00:02:53.289Z,2
2022-09-22T00:04:01.937Z,2.8
2022-09-22T00:05:11.609Z,2
2022-09-22T00:06:20.274Z,2.1
2022-09-22T00:07:27.969Z,1.8
2022-09-22T00:08:37.626Z,1.7
2022-09-22T00:09:47.319Z,2.8
2022-09-22T00:10:55.974Z,1.3
2022-09-22T00:12:04.643Z,1.7
2022-09-22T00:13:12.328Z,1.1
2022-09-22T00:14:22.002Z,1.9
2022-09-22T00:15:30.657Z,3.2
2022-09-22T00:16:39.385Z,1.3
2022-09-22T00:17:49.077Z,1.7
2022-09-22T00:18:58.749Z,1.7
2022-09-22T00:20:08.408Z,0.8
2022-09-22T00:21:17.062Z,1.2
2022-09-22T00:22:26.729Z,1.1
2022-09-22T00:23:36.387Z,1.7
2022-09-22T00:24:45.081Z,1.6
2022-09-22T00:25:52.727Z,1.3
2022-09-22T00:27:02.389Z,1.5
2022-09-22T00:28:12.044Z,1.4
2022-09-22T00:29:20.704Z,1.1
2022-09-22T00:30:29.396Z,1.2
2022-09-22T00:31:38.090Z,1.3
2022-09-22T00:32:47.736Z,1.7
2022-09-22T00:33:56.425Z,2.6
2022-09-22T00:35:04.094Z,1.2
2022-09-22T00:36:13.916Z,1.7
2022-09-22T00:37:22.575Z,2
2022-09-22T00:38:31.232Z,1.3
2022-09-22T00:39:39.915Z,2.2
2022-09-22T00:40:48.573Z,1.5
2022-09-22T00:41:58.268Z,2.3
2022-09-22T00:43:06.934Z,1.9
2022-09-22T00:44:15.584Z,2.3
2022-09-22T00:45:25.252Z,1.6
2022-09-22T00:46:33.941Z,1.6
2022-09-22T00:47:43.597Z,2.1
2022-09-22T00:48:52.266Z,2.1
2022-09-22T00:50:00.941Z,1.7
2022-09-22T00:51:10.565Z,1.6
2022-09-22T00:52:19.236Z,1.7
2022-09-22T00:53:28.929Z,1.9
2022-09-22T00:54:38.608Z,1.4
2022-09-22T00:55:47.299Z,1.7
2022-09-22T00:56:55.955Z,1.7
2022-09-22T00:58:04.658Z,1.4
2022-09-22T00:59:13.370Z,2.2
2022-09-22T01:00:23.045Z,1.6
2022-09-22T01:01:30.767Z,1.9
2022-09-22T01:02:40.378Z,1.3
2022-09-22T01:03:49.056Z,2.3
2022-09-22T01:04:57.843Z,1.6
2022-09-22T01:06:07.526Z,1.3
2022-09-22T01:07:16.170Z,1
2022-09-22T01:08:25.828Z,1.6
2022-09-22T01:09:34.509Z,1.2
2022-09-22T01:10:43.263Z,1.6
2022-09-22T01:11:52.960Z,2
2022-09-22T01:13:01.621Z,1.1
2022-09-22T01:14:10.320Z,0.9
2022-09-22T01:15:19.995Z,2.5
2022-09-22T01:16:28.714Z,0.8
2022-09-22T01:17:37.334Z,1.6
2022-09-22T01:18:45.992Z,1.7
2022-09-22T01:19:54.658Z,1.5
2022-09-22T01:21:04.317Z,1.9
2022-09-22T01:22:13.053Z,1
2022-09-22T01:23:21.707Z,2
2022-09-22T01:24:31.369Z,1.2
2022-09-22T01:25:40.089Z,2.4
2022-09-22T01:26:48.746Z,2.2
2022-09-22T01:27:57.432Z,1.8
2022-09-22T01:29:06.084Z,0.8
2022-09-22T01:30:15.749Z,1.5
2022-09-22T01:31:25.533Z,1.8
2022-09-22T01:32:33.073Z,1.2
2022-09-22T01:33:42.785Z,1.5
2022-09-22T01:34:51.442Z,1.1
2022-09-22T01:36:01.132Z,1.3
2022-09-22T01:37:09.795Z,1.2
2022-09-22T01:38:17.455Z,2
2022-09-22T01:39:27.143Z,1.3
2022-09-22T01:40:35.875Z,1.5
2022-09-22T01:41:44.467Z,1.2
2022-09-22T01:42:54.121Z,1.2
2022-09-22T01:44:01.784Z,1.3
2022-09-22T01:45:10.461Z,1.5
2022-09-22T01:46:18.217Z,1.9
2022-09-22T01:47:26.774Z,1.7
2022-09-22T01:48:36.434Z,1.2
2022-09-22T01:49:46.088Z,2.5
2022-09-22T01:50:54.777Z,1.8
2022-09-22T01:52:04.448Z,1.9
2022-09-22T01:53:13.115Z,2.3
2022-09-22T01:54:21.808Z,1.4
2022-09-22T01:55:31.449Z,2.2
2022-09-22T01:56:39.249Z,1.4
2022-09-22T01:57:48.941Z,1.4
2022-09-22T01:58:58.591Z,1.3
2022-09-22T02:00:06.269Z,2
2022-09-22T02:01:15.968Z,1.7
2022-09-22T02:02:25.684Z,1.5
2022-09-22T02:03:35.232Z,1.8
2022-09-22T02:04:44.938Z,2
2022-09-22T02:05:53.608Z,1.6
2022-09-22T02:07:04.264Z,2.6
2022-09-22T02:08:12.962Z,1
2022-09-22T02:09:21.620Z,1.4
2022-09-22T02:10:31.368Z,2.4
2022-09-22T02:11:40.033Z,2.3
2022-09-22T02:12:48.680Z,1.3
2022-09-22T02:13:57.350Z,3.1
2022-09-22T02:15:07.035Z,1.7
2022-09-22T02:16:16.715Z,1.2
2022-09-22T02:17:26.353Z,2.1
2022-09-22T02:18:37.027Z,1.3
2022-09-22T02:19:46.713Z,1.3
2022-09-22T02:20:55.372Z,1.6
2022-09-22T02:22:04.033Z,1.6
2022-09-22T02:23:13.694Z,1.8
2022-09-22T02:24:22.349Z,1.9
2022-09-22T02:25:32.058Z,1.4
2022-09-22T02:26:41.744Z,1.3
2022-09-22T02:27:49.374Z,1.5
2022-09-22T02:28:59.038Z,2.2
2022-09-22T02:30:08.721Z,3.5
2022-09-22T02:31:20.221Z,3.4
2022-09-22T02:32:28.037Z,1.5
2022-09-22T02:33:38.384Z,2
2022-09-22T02:34:47.361Z,2.1
2022-09-22T02:35:57.009Z,0.9
2022-09-22T02:37:05.690Z,1.9
2022-09-22T02:38:15.455Z,2.7
2022-09-22T02:39:24.158Z,1.4
2022-09-22T02:40:33.912Z,1.8
2022-09-22T02:41:42.494Z,1.5
2022-09-22T02:42:50.233Z,1.8
2022-09-22T02:43:59.867Z,1.7
2022-09-22T02:45:08.536Z,1.7
2022-09-22T02:46:17.244Z,1.6
2022-09-22T02:47:26.867Z,2.5
2022-09-22T02:48:36.532Z,2.6
2022-09-22T02:49:45.185Z,3.7
2022-09-22T02:50:53.830Z,3.4
2022-09-22T02:52:01.478Z,2.1
2022-09-22T02:53:11.146Z,1.9
2022-09-22T02:54:19.860Z,1.8
2022-09-22T02:55:27.514Z,1.7
2022-09-22T02:56:37.181Z,1.5
2022-09-22T02:57:45.831Z,1.6
2022-09-22T02:58:58.275Z,1.5
2022-09-22T03:00:03.240Z,1.4
2022-09-22T03:01:12.942Z,2.1
2022-09-22T03:02:21.543Z,1.8
2022-09-22T03:03:30.182Z,1.5
2022-09-22T03:04:39.875Z,2
2022-09-22T03:05:49.536Z,1.4
2022-09-22T03:06:57.184Z,2.3
2022-09-22T03:08:06.850Z,1.3
2022-09-22T03:09:15.539Z,1.4
2022-09-22T03:10:25.220Z,3
2022-09-22T03:11:33.907Z,1.4
2022-09-22T03:12:56.912Z,2.1
2022-09-22T03:13:54.209Z,2.2
2022-09-22T03:15:03.899Z,2.2
2022-09-22T03:16:11.546Z,2.6
2022-09-22T03:17:21.195Z,1.6
2022-09-22T03:18:29.846Z,2.4
2022-09-22T03:19:38.492Z,4
2022-09-22T03:20:47.139Z,1.4
2022-09-22T03:21:55.794Z,2.4
2022-09-22T03:23:05.494Z,1.6
2022-09-22T03:24:15.149Z,2
2022-09-22T03:25:22.804Z,1.8
2022-09-22T03:26:32.471Z,2.5
2022-09-22T03:27:41.114Z,2
2022-09-22T03:28:50.787Z,1.7
2022-09-22T03:29:59.438Z,1.6
2022-09-22T03:31:08.203Z,1.3
2022-09-22T03:32:17.745Z,1.2
2022-09-22T03:33:26.375Z,1.7
2022-09-22T03:34:35.080Z,2.2
2022-09-22T03:35:44.898Z,1.3
2022-09-22T03:36:54.559Z,1.5
2022-09-22T03:38:04.220Z,2.4
2022-09-22T03:39:13.876Z,1.3
2022-09-22T03:40:22.604Z,1.9
2022-09-22T03:41:32.200Z,2
2022-09-22T03:42:40.844Z,1.6
2022-09-22T03:43:49.507Z,1
2022-09-22T03:44:59.149Z,1.4
2022-09-22T03:46:07.923Z,1.3
2022-09-22T03:47:16.534Z,1.1
2022-09-22T03:48:26.168Z,1.4
2022-09-22T03:49:34.819Z,2.2
2022-09-22T03:50:44.491Z,1.7
2022-09-22T03:51:54.170Z,2
2022-09-22T03:53:01.829Z,1.6
2022-09-22T03:54:11.512Z,2
2022-09-22T03:55:21.164Z,1.6
2022-09-22T03:56:30.831Z,1.4
2022-09-22T03:57:39.489Z,1.9
2022-09-22T03:58:49.134Z,2
2022-09-22T03:59:58.784Z,1.7
2022-09-22T04:01:07.477Z,1.5
2022-09-22T04:02:15.120Z,2.8
2022-09-22T04:03:24.903Z,1.2
2022-09-22T04:04:33.516Z,1.2
2022-09-22T04:05:43.201Z,1.3
2022-09-22T04:06:51.857Z,1.3
2022-09-22T04:08:00.505Z,0.9
2022-09-22T04:09:10.172Z,1.6
2022-09-22T04:10:18.837Z,2.6
2022-09-22T04:11:26.475Z,2.8
2022-09-22T04:12:36.145Z,1.2
2022-09-22T04:13:46.491Z,1.2
2022-09-22T04:14:54.461Z,2.3
2022-09-22T04:16:02.116Z,1.5
2022-09-22T04:17:10.782Z,2.2
2022-09-22T04:18:20.470Z,1.6
2022-09-22T04:19:29.169Z,1.3
2022-09-22T04:20:36.844Z,2.5
2022-09-22T04:21:46.510Z,2.2
2022-09-22T04:22:56.195Z,1.3
2022-09-22T04:24:05.919Z,1.6
2022-09-22T04:25:14.539Z,1.5
2022-09-22T04:26:21.205Z,1.3
2022-09-22T04:27:30.859Z,1.1
2022-09-22T04:28:39.526Z,1.2
2022-09-22T04:29:48.177Z,1.9
2022-09-22T04:30:57.897Z,1.4
2022-09-22T04:32:06.516Z,1.9
2022-09-22T04:33:15.226Z,1.7
2022-09-22T04:34:23.887Z,1.4
2022-09-22T04:35:31.615Z,1
2022-09-22T04:36:41.260Z,2.3
2022-09-22T04:37:50.967Z,1.9
2022-09-22T04:39:00.642Z,0.8
2022-09-22T04:40:10.300Z,1.4
2022-09-22T04:41:18.948Z,1
2022-09-22T04:42:27.618Z,0.8
2022-09-22T04:43:37.308Z,1.1
2022-09-22T04:44:45.960Z,3.6
2022-09-22T04:45:55.673Z,1.1
2022-09-22T04:47:05.288Z,1.2
2022-09-22T04:48:12.944Z,2.3
2022-09-22T04:49:21.621Z,1.8
2022-09-22T04:50:31.310Z,0.7
2022-09-22T04:51:40.023Z,1
2022-09-22T04:52:49.700Z,1.3
2022-09-22T04:53:59.445Z,3
2022-09-22T04:55:09.061Z,1.8
2022-09-22T04:56:18.734Z,1.3
2022-09-22T04:57:28.409Z,1
2022-09-22T04:58:38.061Z,1.9
2022-09-22T04:59:46.753Z,2.1
2022-09-22T05:00:56.509Z,1.3
2022-09-22T05:02:06.101Z,2.6
2022-09-22T05:03:19.998Z,3.3
2022-09-22T05:04:26.418Z,2.9
2022-09-22T05:05:35.076Z,1.5
2022-09-22T05:06:43.922Z,2.2
2022-09-22T05:07:53.568Z,2.3
2022-09-22T05:09:02.233Z,1
2022-09-22T05:10:10.886Z,1.8
2022-09-22T05:11:20.555Z,1.6
2022-09-22T05:12:29.254Z,1.8
2022-09-22T05:13:37.905Z,1.3
2022-09-22T05:14:45.551Z,1.6
2022-09-22T05:15:55.213Z,1.4
2022-09-22T05:17:03.864Z,1.3
2022-09-22T05:18:11.611Z,1.2
2022-09-22T05:19:21.278Z,1.8
2022-09-22T05:20:30.931Z,1.8
2022-09-22T05:21:39.599Z,1.8
2022-09-22T05:22:48.275Z,3.1
2022-09-22T05:23:57.247Z,1.4
2022-09-22T05:25:06.718Z,1.6
2022-09-22T05:26:15.410Z,4.1
2022-09-22T05:27:24.068Z,1.5
2022-09-22T05:28:33.732Z,1.2
2022-09-22T05:29:42.420Z,1
2022-09-22T05:30:51.060Z,1.6
2022-09-22T05:31:59.773Z,1.6
2022-09-22T05:33:07.411Z,2.7
2022-09-22T05:34:17.066Z,1.7
2022-09-22T05:35:25.812Z,2.7
2022-09-22T05:36:35.457Z,1.5
2022-09-22T05:37:45.124Z,2.7
2022-09-22T05:38:53.786Z,1.9
2022-09-22T05:40:02.485Z,1.7
2022-09-22T05:41:11.203Z,2.8
2022-09-22T05:42:18.848Z,1.9
2022-09-22T05:43:28.526Z,1.3
2022-09-22T05:44:37.191Z,1.5
2022-09-22T05:45:44.917Z,1.8
2022-09-22T05:46:53.609Z,1.3
2022-09-22T05:48:02.265Z,1.4
2022-09-22T05:49:10.925Z,6.9
2022-09-22T05:50:19.590Z,3.4
2022-09-22T05:51:28.264Z,5.9
2022-09-22T05:52:37.959Z,6.2
2022-09-22T05:53:46.599Z,8.9
2022-09-22T05:54:55.276Z,6.3
2022-09-22T05:56:04.912Z,5.9
2022-09-22T05:57:13.595Z,3.3
2022-09-22T05:58:22.276Z,3.4
2022-09-22T05:59:30.941Z,3.2
2022-09-22T06:00:39.701Z,6
2022-09-22T06:01:49.336Z,4.2
2022-09-22T06:02:58.041Z,4.4
2022-09-22T06:04:06.635Z,4.2
2022-09-22T06:05:18.746Z,4
2022-09-22T06:06:25.909Z,2.2
2022-09-22T06:07:34.555Z,3.4
2022-09-22T06:08:47.877Z,4.1
2022-09-22T06:09:52.994Z,4.3
2022-09-22T06:11:02.675Z,3.4
2022-09-22T06:12:12.300Z,4
2022-09-22T06:13:19.947Z,3
2022-09-22T06:14:29.626Z,2.5
2022-09-22T06:15:38.282Z,3.1
2022-09-22T06:16:46.981Z,4.2
2022-09-22T06:17:56.636Z,4.1
2022-09-22T06:19:04.289Z,3.2
2022-09-22T06:20:13.944Z,2.4
2022-09-22T06:21:22.630Z,2.5
2022-09-22T06:22:32.283Z,3.3
2022-09-22T06:23:42.920Z,4
2022-09-22T06:24:51.566Z,2
2022-09-22T06:26:01.258Z,3.4
2022-09-22T06:27:09.972Z,3.1
2022-09-22T06:28:18.639Z,4.1
2022-09-22T06:29:28.344Z,2.3
2022-09-22T06:30:37.999Z,3
2022-09-22T06:31:46.730Z,2.5
2022-09-22T06:32:55.409Z,4.5
2022-09-22T06:34:07.439Z,2.1
2022-09-22T06:35:14.668Z,3.4
2022-09-22T06:36:23.325Z,5.2
2022-09-22T06:37:32.052Z,3
2022-09-22T06:38:41.743Z,2.7
2022-09-22T06:39:50.408Z,3.1
2022-09-22T06:40:58.157Z,4
2022-09-22T06:42:07.749Z,4.4
2022-09-22T06:43:16.444Z,3.7
2022-09-22T06:44:25.445Z,3.1
2022-09-22T06:45:35.289Z,3.7
2022-09-22T06:46:42.826Z,3
2022-09-22T06:47:52.487Z,2.1
2022-09-22T06:49:01.147Z,4
2022-09-22T06:50:08.816Z,4.2
2022-09-22T06:51:18.488Z,2.6
2022-09-22T06:52:25.160Z,2.2
2022-09-22T06:53:34.822Z,2.1
2022-09-22T06:54:43.507Z,1.7
2022-09-22T06:55:53.766Z,2.1
2022-09-22T06:57:01.827Z,1.8
2022-09-22T06:58:09.496Z,2
2022-09-22T06:59:19.273Z,1.8
2022-09-22T07:00:28.810Z,1.6
2022-09-22T07:01:36.610Z,2.1
2022-09-22T07:02:46.149Z,2.7
2022-09-22T07:03:54.829Z,2.3
2022-09-22T07:05:03.486Z,2.2
2022-09-22T07:06:13.226Z,2.4
2022-09-22T07:07:21.827Z,1.7
2022-09-22T07:08:31.476Z,2.9
2022-09-22T07:09:40.128Z,2
2022-09-22T07:10:47.774Z,1.6
2022-09-22T07:11:56.434Z,1.5
2022-09-22T07:13:06.254Z,1.4
2022-09-22T07:14:14.900Z,3.5
2022-09-22T07:15:23.609Z,1.4
2022-09-22T07:16:32.304Z,2.6
2022-09-22T07:17:41.937Z,3.9
2022-09-22T07:18:50.699Z,9.3
2022-09-22T07:20:00.377Z,19.299999
2022-09-22T07:21:09.088Z,9.4
2022-09-22T07:22:17.798Z,5.3
2022-09-22T07:23:26.484Z,4.2
2022-09-22T07:24:35.219Z,1.9
2022-09-22T07:25:43.890Z,1.8
2022-09-22T07:26:54.646Z,2.8
2022-09-22T07:28:03.314Z,1.6
2022-09-22T07:29:13.030Z,0.7
2022-09-22T07:30:22.808Z,1
2022-09-22T07:31:32.459Z,1
2022-09-22T07:32:41.041Z,0.7
2022-09-22T07:33:49.698Z,1.8
2022-09-22T07:35:00.380Z,1.4
2022-09-22T07:36:10.057Z,1.8
2022-09-22T07:37:18.715Z,1.3
2022-09-22T07:38:26.365Z,1.6
2022-09-22T07:39:36.017Z,0.7
2022-09-22T07:40:45.763Z,1.9
2022-09-22T07:41:55.404Z,1.2
2022-09-22T07:43:04.092Z,0.9
2022-09-22T07:44:12.790Z,1.1
2022-09-22T07:45:22.468Z,0.7
2022-09-22T07:46:32.159Z,1.3
2022-09-22T07:47:39.836Z,2.2
2022-09-22T07:48:49.480Z,1.4
2022-09-22T07:49:58.135Z,0.7
2022-09-22T07:51:06.849Z,1.4
2022-09-22T07:52:16.506Z,1.1
2022-09-22T07:53:25.204Z,0.9
2022-09-22T07:54:34.856Z,0.8
2022-09-22T07:55:43.542Z,1.5
2022-09-22T07:56:52.209Z,1.1
2022-09-22T07:58:01.914Z,1
2022-09-22T07:59:10.581Z,1.1
2022-09-22T08:00:19.292Z,1.2
2022-09-22T08:01:28.966Z,1.5
2022-09-22T08:02:36.628Z,1.5
2022-09-22T08:03:46.326Z,1.3
2022-09-22T08:04:56.021Z,0.8
2022-09-22T08:06:06.301Z,0.6
2022-09-22T08:07:15.351Z,0.9
2022-09-22T08:08:24.011Z,2.3
2022-09-22T08:09:33.673Z,0.8
2022-09-22T08:10:42.354Z,0.7
2022-09-22T08:11:50.000Z,0.6
2022-09-22T08:12:59.668Z,0.5
2022-09-22T08:14:08.403Z,0.2
2022-09-22T08:15:15.977Z,1.3
2022-09-22T08:16:25.776Z,0.3
2022-09-22T08:17:35.402Z,1.1
2022-09-22T08:18:43.067Z,0.7
2022-09-22T08:19:51.749Z,0.6
2022-09-22T08:20:59.377Z,1.2
2022-09-22T08:22:09.077Z,0.2
2022-09-22T08:23:17.734Z,0.7
2022-09-22T08:24:27.454Z,0.8
2022-09-22T08:25:37.122Z,0.7
2022-09-22T08:26:48.336Z,0.4
2022-09-22T08:27:55.480Z,0.4
2022-09-22T08:29:05.144Z,0.5
2022-09-22T08:30:13.820Z,1
2022-09-22T08:31:23.593Z,0.9
2022-09-22T08:32:33.243Z,0.7
2022-09-22T08:33:41.959Z,0.8
2022-09-22T08:34:51.633Z,1
2022-09-22T08:36:00.333Z,1.1
2022-09-22T08:37:08.950Z,1.5
2022-09-22T08:38:17.695Z,0.7
2022-09-22T08:39:27.403Z,0.8
2022-09-22T08:40:37.089Z,1.5
2022-09-22T08:41:45.753Z,0.8
2022-09-22T08:42:53.409Z,0.6
2022-09-22T08:44:03.102Z,1
2022-09-22T08:45:12.791Z,0.2
2022-09-22T08:46:21.503Z,0.3
2022-09-22T08:47:30.117Z,0.4
2022-09-22T08:48:38.780Z,1.2
2022-09-22T08:49:47.453Z,1.4
2022-09-22T08:50:56.236Z,0.6
2022-09-22T08:52:05.934Z,0.4
2022-09-22T08:53:15.587Z,0.6
2022-09-22T08:54:25.246Z,0.3
2022-09-22T08:55:32.917Z,0.2
2022-09-22T08:56:42.652Z,0.5
2022-09-22T08:57:52.329Z,0.3
2022-09-22T08:59:01.008Z,0.3
2022-09-22T09:00:10.812Z,1
2022-09-22T09:01:18.476Z,0.4
2022-09-22T09:02:28.215Z,0.6
2022-09-22T09:03:37.820Z,0.3
2022-09-22T09:04:46.481Z,0.1
2022-09-22T09:05:56.156Z,0.2
2022-09-22T09:07:04.867Z,0.4
2022-09-22T09:08:13.636Z,0.7
2022-09-22T09:09:23.284Z,0.1
2022-09-22T09:10:32.013Z,0.2
2022-09-22T09:11:41.693Z,0.4
2022-09-22T09:12:51.369Z,0.6
2022-09-22T09:14:01.068Z,0.6
2022-09-22T09:15:10.797Z,0.3
2022-09-22T09:16:20.508Z,0.4
2022-09-22T09:17:29.177Z,0.2
2022-09-22T09:18:37.836Z,0.3
2022-09-22T09:19:47.536Z,0.5
2022-09-22T09:20:57.185Z,0.3
2022-09-22T09:22:05.834Z,0.2
2022-09-22T09:23:13.508Z,0.5
2022-09-22T09:25:31.859Z,0.3
2022-09-22T09:26:41.554Z,0.3
2022-09-22T09:27:50.235Z,0.1
2022-09-22T09:29:03.617Z,0.2
2022-09-22T09:30:10.595Z,0.2
2022-09-22T09:31:20.443Z,0.4
2022-09-22T09:32:30.103Z,0.1
2022-09-22T09:33:38.778Z,0.2
2022-09-22T09:34:48.181Z,0.3
2022-09-22T09:35:58.126Z,0.2
2022-09-22T09:37:06.816Z,0.1
2022-09-22T09:38:15.466Z,0.3
2022-09-22T09:39:24.150Z,0.4
2022-09-22T09:40:32.898Z,0.4
2022-09-22T09:41:42.485Z,1.1
2022-09-22T09:42:51.201Z,0.4
2022-09-22T09:43:58.821Z,0.8
2022-09-22T09:45:09.315Z,0.1
2022-09-22T09:46:19.002Z,0.1
2022-09-22T09:47:27.684Z,0.1
2022-09-22T09:48:37.495Z,0.4
2022-09-22T09:49:45.170Z,0.2
2022-09-22T09:50:55.827Z,0.3
2022-09-22T09:52:05.494Z,0.1
2022-09-22T09:53:13.164Z,0.1
2022-09-22T09:54:22.864Z,0.1
2022-09-22T09:55:32.523Z,0.1
2022-09-22T09:56:41.258Z,0.5
2022-09-22T09:57:50.979Z,1
2022-09-22T09:59:00.652Z,0.2
2022-09-22T10:00:10.399Z,0.1
2022-09-22T10:01:19.072Z,0.2
2022-09-22T10:02:27.770Z,0.2
2022-09-22T10:03:37.439Z,0.5
2022-09-22T10:04:46.087Z,0.7
2022-09-22T10:05:54.771Z,0
2022-09-22T10:07:03.416Z,0.8
2022-09-22T10:08:11.098Z,0.1
2022-09-22T10:09:20.748Z,0.2
2022-09-22T10:10:29.433Z,0
2022-09-22T10:11:38.104Z,0.2
2022-09-22T10:12:47.791Z,0.1
2022-09-22T10:13:56.426Z,0.3
2022-09-22T10:15:06.084Z,0.3
2022-09-22T10:16:15.826Z,0.1
2022-09-22T10:17:24.454Z,0.3
2022-09-22T10:18:34.121Z,0.1
2022-09-22T10:19:42.775Z,0.1
2022-09-22T10:20:51.444Z,0.1
2022-09-22T10:22:01.111Z,0.1
2022-09-22T10:23:10.063Z,0.1
2022-09-22T10:24:19.704Z,0.9
2022-09-22T10:25:28.367Z,0.1
2022-09-22T10:26:37.060Z,0.1
2022-09-22T10:27:46.718Z,0.1
2022-09-22T10:28:56.523Z,0.2
2022-09-22T10:30:06.094Z,0.2
2022-09-22T10:31:15.757Z,0.2
2022-09-22T10:32:24.438Z,0.2
2022-09-22T10:33:34.084Z,0.1
2022-09-22T10:34:42.786Z,0.2
2022-09-22T10:35:51.419Z,0.4
2022-09-22T10:37:01.090Z,0.1
2022-09-22T10:38:09.794Z,0.4
2022-09-22T10:39:17.443Z,0.1
2022-09-22T10:40:27.289Z,0.2
2022-09-22T10:41:35.799Z,0.1
2022-09-22T10:42:45.495Z,0.1
2022-09-22T10:43:55.171Z,0.6
2022-09-22T10:45:04.908Z,0.2
2022-09-22T10:46:14.597Z,0.2
2022-09-22T10:47:26.853Z,0.3
2022-09-22T10:48:32.808Z,0.1
2022-09-22T10:49:42.465Z,0.1
2022-09-22T10:50:51.108Z,0.4
2022-09-22T10:51:59.803Z,1
2022-09-22T10:53:08.456Z,0.3
2022-09-22T10:54:17.129Z,0.2
2022-09-22T10:55:26.772Z,0.3
2022-09-22T10:56:35.439Z,0.4
2022-09-22T10:57:44.118Z,0.3
2022-09-22T10:58:53.774Z,0.4
2022-09-22T11:00:02.410Z,0.4
2022-09-22T11:01:11.110Z,1
2022-09-22T11:02:20.712Z,0.5
2022-09-22T11:03:29.397Z,0.7
2022-09-22T11:04:39.088Z,0.5
2022-09-22T11:05:47.713Z,0.7
2022-09-22T11:06:57.382Z,0.2
2022-09-22T11:08:07.035Z,0.3
2022-09-22T11:09:15.744Z,0.2
2022-09-22T11:10:24.492Z,0.2
2022-09-22T11:11:34.626Z,0.3
2022-09-22T11:12:42.645Z,0.2
2022-09-22T11:13:52.292Z,0.2
2022-09-22T11:15:01.967Z,0.3
2022-09-22T11:16:10.672Z,0.5
2022-09-22T11:17:20.413Z,0.2
2022-09-22T11:18:28.962Z,0.2
2022-09-22T11:19:38.620Z,0.1
2022-09-22T11:20:48.333Z,0.7
2022-09-22T11:21:57.989Z,0.1
2022-09-22T11:23:07.655Z,0.1
2022-09-22T11:24:15.292Z,0.3
2022-09-22T11:25:24.973Z,0.4
2022-09-22T11:26:33.668Z,0.1
2022-09-22T11:27:42.325Z,0.2
2022-09-22T11:28:56.430Z,0.2
2022-09-22T11:30:01.620Z,0
2022-09-22T11:31:12.314Z,0.1
2022-09-22T11:32:21.013Z,0.1
2022-09-22T11:33:28.701Z,0.2
2022-09-22T11:34:38.315Z,0.1
2022-09-22T11:35:46.973Z,0.4
2022-09-22T11:36:54.612Z,0
2022-09-22T11:38:04.397Z,0.2
2022-09-22T11:39:13.079Z,0.2
2022-09-22T11:40:22.932Z,0.1
2022-09-22T11:41:31.497Z,0.1
2022-09-22T11:42:39.173Z,0.1
2022-09-22T11:43:48.870Z,0.2
2022-09-22T11:44:58.527Z,0.3
2022-09-22T11:46:06.251Z,0.1
2022-09-22T11:47:15.843Z,0.5
2022-09-22T11:48:25.499Z,0.1
2022-09-22T11:49:35.248Z,0.1
2022-09-22T11:50:44.846Z,0.2
2022-09-22T11:51:52.491Z,0.6
2022-09-22T11:53:02.133Z,0.2
2022-09-22T11:54:10.774Z,0.3
2022-09-22T11:55:19.569Z,0.2
2022-09-22T11:56:28.230Z,0.2
2022-09-22T11:57:36.867Z,0.2
2022-09-22T11:58:45.539Z,0.7
2022-09-22T11:59:54.210Z,0.2
2022-09-22T12:01:01.873Z,0.6
2022-09-22T12:02:11.634Z,0.2
2022-09-22T12:03:20.320Z,0.2
2022-09-22T12:04:27.848Z,0.2
2022-09-22T12:05:37.531Z,0
2022-09-22T12:06:46.204Z,0.2
2022-09-22T12:07:55.863Z,0.4
2022-09-22T12:09:03.516Z,0.1
2022-09-22T12:10:12.148Z,0.2
2022-09-22T12:11:21.822Z,0.3
2022-09-22T12:12:31.536Z,0.4
2022-09-22T12:13:41.201Z,0.1
2022-09-22T12:14:50.889Z,0.7
2022-09-22T12:16:00.643Z,0.1
2022-09-22T12:17:09.234Z,0.2
2022-09-22T12:18:17.927Z,0.7
2022-09-22T12:19:27.581Z,0.3
2022-09-22T12:20:37.283Z,0.4
2022-09-22T12:21:46.990Z,0.4
2022-09-22T12:22:56.617Z,0.1
2022-09-22T12:24:06.407Z,0.2
2022-09-22T12:25:21.122Z,0.3
2022-09-22T12:26:25.604Z,0.3
2022-09-22T12:27:34.256Z,0.2
2022-09-22T12:28:42.915Z,0.2
2022-09-22T12:29:52.609Z,0.4
2022-09-22T12:31:02.356Z,0.3
2022-09-22T12:32:10.948Z,0.4
2022-09-22T12:33:20.608Z,0.2
2022-09-22T12:34:30.293Z,0.2
2022-09-22T12:35:38.990Z,0.3
2022-09-22T12:36:48.742Z,0
2022-09-22T12:37:56.320Z,0.1
2022-09-22T12:39:05.976Z,0.1
2022-09-22T12:40:14.689Z,0.3
2022-09-22T12:41:23.316Z,0.3
2022-09-22T12:42:32.987Z,0.1
2022-09-22T12:43:42.714Z,0.1
2022-09-22T12:44:52.453Z,0.1
2022-09-22T12:46:01.193Z,0.3
2022-09-22T12:47:09.853Z,0.3
2022-09-22T12:48:20.478Z,0.2
2022-09-22T12:49:29.143Z,0.2
2022-09-22T12:50:36.793Z,0.1
2022-09-22T12:51:46.466Z,0.2
2022-09-22T12:52:54.158Z,0.7
2022-09-22T12:54:02.791Z,0.2
2022-09-22T12:55:11.447Z,0.3
2022-09-22T12:56:19.090Z,0.1
2022-09-22T12:57:28.757Z,0.3
2022-09-22T12:58:37.556Z,0.3
2022-09-22T12:59:45.219Z,0.4
2022-09-22T13:00:54.920Z,0.1
2022-09-22T13:02:04.610Z,0.3
2022-09-22T13:03:13.171Z,0.3
2022-09-22T13:04:21.838Z,0.3
2022-09-22T13:05:29.499Z,0.4
2022-09-22T13:06:39.189Z,0.2
2022-09-22T13:07:48.830Z,0.1
2022-09-22T13:08:57.514Z,0.4
2022-09-22T13:10:07.168Z,0.2
2022-09-22T13:11:15.824Z,0.3
2022-09-22T13:12:24.491Z,0.1
2022-09-22T13:13:33.142Z,0.4
2022-09-22T13:14:42.783Z,0.7
2022-09-22T13:15:52.488Z,0.1
2022-09-22T13:17:01.144Z,0.1
2022-09-22T13:18:08.790Z,0.5
2022-09-22T13:19:18.469Z,0.4
2022-09-22T13:20:27.115Z,0.3
2022-09-22T13:21:36.810Z,0.1
2022-09-22T13:22:46.469Z,0.9
2022-09-22T13:23:55.132Z,0.2
2022-09-22T13:25:04.805Z,0.7
2022-09-22T13:26:13.441Z,0.2
2022-09-22T13:27:23.126Z,0.1
2022-09-22T13:28:31.767Z,0.4
2022-09-22T13:29:40.420Z,0.3
2022-09-22T13:30:50.117Z,0.6
2022-09-22T13:31:58.745Z,0.8
2022-09-22T13:33:08.557Z,0.2
2022-09-22T13:34:18.258Z,0.2
2022-09-22T13:35:26.014Z,0.2
2022-09-22T13:36:35.688Z,0.2
2022-09-22T13:37:44.340Z,0.2
2022-09-22T13:38:53.108Z,0.4
2022-09-22T13:40:02.929Z,0.5
2022-09-22T13:41:12.484Z,0.3
2022-09-22T13:42:21.103Z,0.1
2022-09-22T13:43:29.747Z,0.2
2022-09-22T13:44:37.449Z,0.2
2022-09-22T13:45:47.174Z,0.2
2022-09-22T13:46:56.789Z,0.3
2022-09-22T13:48:08.394Z,0.3
2022-09-22T13:49:16.066Z,0.6
2022-09-22T13:50:25.819Z,0.1
2022-09-22T13:51:35.442Z,0.4
2022-09-22T13:52:44.097Z,0.2
2022-09-22T13:53:52.747Z,0.2
2022-09-22T13:55:02.414Z,0.4
2022-09-22T13:56:12.062Z,0.1
2022-09-22T13:57:21.733Z,0.3
2022-09-22T13:58:31.359Z,0.1
2022-09-22T13:59:40.009Z,0.2
2022-09-22T14:01:11.894Z,0.6
2022-09-22T14:02:00.449Z,0.3
2022-09-22T14:03:08.007Z,0.2
2022-09-22T14:04:16.642Z,0.2
2022-09-22T14:05:24.285Z,0.3
2022-09-22T14:06:32.933Z,0.1
2022-09-22T14:07:55.507Z,0.2
2022-09-22T14:08:52.218Z,0.2
2022-09-22T14:10:00.909Z,0.1
2022-09-22T14:11:09.558Z,0.4
2022-09-22T14:12:17.247Z,0.1
2022-09-22T14:13:27.025Z,0.3
2022-09-22T14:14:36.646Z,0.1
2022-09-22T14:15:45.305Z,0.1
2022-09-22T14:16:55.134Z,0.2
2022-09-22T14:18:03.663Z,0.3
2022-09-22T14:19:13.332Z,0.2
2022-09-22T14:20:21.973Z,0.8
2022-09-22T14:21:30.620Z,0.1
2022-09-22T14:22:40.291Z,0.1
2022-09-22T14:23:47.954Z,0.1
2022-09-22T14:24:56.647Z,0.5
2022-09-22T14:26:06.304Z,0.1
2022-09-22T14:27:15.946Z,0.3
2022-09-22T14:28:24.616Z,0.1
2022-09-22T14:29:34.315Z,1.1
2022-09-22T14:30:42.963Z,0.2
2022-09-22T14:31:52.705Z,0.4
2022-09-22T14:33:02.260Z,0.5
2022-09-22T14:34:11.923Z,0.6
2022-09-22T14:35:21.620Z,0.3
2022-09-22T14:36:30.435Z,0.6
2022-09-22T14:37:39.073Z,0.4
2022-09-22T14:38:59.323Z,0.1
2022-09-22T14:39:57.343Z,0.1
2022-09-22T14:41:06.991Z,0.2
2022-09-22T14:42:15.667Z,0.1
2022-09-22T14:43:25.595Z,0.2
2022-09-22T14:44:35.346Z,0.5
2022-09-22T14:45:44.046Z,0.7
2022-09-22T14:46:52.638Z,0.2
2022-09-22T14:48:01.353Z,0.1
2022-09-22T14:49:11.042Z,0.6
2022-09-22T14:50:20.701Z,0.2
2022-09-22T14:51:32.989Z,0.3
2022-09-22T14:52:41.063Z,1.1
2022-09-22T14:53:49.760Z,0.2
2022-09-22T14:54:58.397Z,0.6
2022-09-22T14:56:08.070Z,0.3
2022-09-22T14:57:16.737Z,0.5
2022-09-22T14:58:24.432Z,0.3
2022-09-22T14:59:34.120Z,0.5
2022-09-22T15:00:42.832Z,0.3
2022-09-22T15:01:50.748Z,0.4
2022-09-22T15:03:00.139Z,0.3
2022-09-22T15:04:08.791Z,0.7
2022-09-22T15:05:17.464Z,0.3
2022-09-22T15:06:27.163Z,0.6
2022-09-22T15:07:34.632Z,1.4
2022-09-22T15:08:44.332Z,0.5
2022-09-22T15:09:54.030Z,0.8
2022-09-22T15:11:01.724Z,0.4
2022-09-22T15:12:11.408Z,0.8
2022-09-22T15:13:20.074Z,0.3
2022-09-22T15:14:28.726Z,0.3
2022-09-22T15:15:37.381Z,0.8
2022-09-22T15:16:45.074Z,0.4
2022-09-22T15:17:54.757Z,0.3
2022-09-22T15:19:04.401Z,0.2
2022-09-22T15:20:14.070Z,0.3
2022-09-22T15:21:23.776Z,0.5
2022-09-22T15:22:33.453Z,0.8
2022-09-22T15:23:43.153Z,1.5
2022-09-22T15:24:51.792Z,0.6
2022-09-22T15:26:00.449Z,1
2022-09-22T15:27:08.147Z,0.8
2022-09-22T15:28:15.845Z,1.4
2022-09-22T15:29:25.503Z,0.9
2022-09-22T15:30:34.163Z,1.8
2022-09-22T15:31:41.851Z,3.1
2022-09-22T15:32:51.532Z,1.5
2022-09-22T15:34:00.342Z,1.9
2022-09-22T15:35:08.850Z,0.4
2022-09-22T15:36:18.521Z,1.1
2022-09-22T15:37:26.224Z,1
2022-09-22T15:38:35.880Z,2
2022-09-22T15:39:45.701Z,0.9
2022-09-22T15:40:54.343Z,3.9
2022-09-22T15:42:07.353Z,2.7
2022-09-22T15:43:13.831Z,1.7
2022-09-22T15:44:23.532Z,1.8
2022-09-22T15:45:32.266Z,2.2
2022-09-22T15:46:41.916Z,1.9
2022-09-22T15:47:51.563Z,2.4
2022-09-22T15:49:00.194Z,1.3
2022-09-22T15:50:07.930Z,2
2022-09-22T15:51:17.588Z,1.6
2022-09-22T15:52:26.238Z,1.3
2022-09-22T15:53:34.892Z,3.3
2022-09-22T15:54:47.858Z,1.8
2022-09-22T15:55:53.185Z,1.9
2022-09-22T15:57:02.890Z,0.5